Langara, Canada
Current Conditions -  °F | °C
As of 6:00 PM on Friday 28 Nov 2014 (Local Time) from CZMT Reporting Station
Few Clouds Few Clouds  
Wind Chill: 24°   Ceiling: Unl
Heat Index: 30°   Visibility: 15mi
Dew Point: 10°   Wind: 6mph
Humidity: 44%   Direction: NA
Pressure: 30.07"   Gusts: 21mph
Location:  54.23°N, 133°W
Report Text: CZMT 290200Z VRB05G18KT 15SM FEW006 FEW040 M01/M12 A3007 RMK CF1SC1 CF TR SC TR LAST OBS/NEXT 291500 UTC SLP184
Loading
Personal Weather Stations






























Interactive Weather Map New forecast layout! Learn more

10-Day Weather Forecast

Advertisements
Track Severe Weather on mobile